Time;durP1;ratioP1;P1;durP2;ratioP2;P2;SDS_P1;SDS_P2;PMS_P1;PMS_P2;Temp;Humidity;BMP_temperature;BMP_pressure;BME280_temperature;BME280_humidity;BME280_pressure;Samples;Min_cycle;Max_cycle;Signal;HPM_P1;HPM_P2
2022/08/22 00:02:01;;;;;;;2.63;1.13;;;23.80;60.50;;;;;;4462084;32;20101;-72
2022/08/22 00:04:52;;;;;;;3.80;1.00;;;23.80;60.50;;;;;;4461682;32;20498;-72
2022/08/22 00:07:40;;;;;;;2.45;1.50;;;23.80;60.50;;;;;;4461649;32;20081;-72
2022/08/22 00:10:50;;;;;;;3.33;1.38;;;23.80;60.50;;;;;;4461829;32;20081;-71
2022/08/22 00:13:22;;;;;;;5.47;1.40;;;23.80;60.50;;;;;;4461640;32;20066;-72
2022/08/22 00:16:02;;;;;;;1.90;1.10;;;23.80;60.60;;;;;;4461901;32;20069;-72
2022/08/22 00:18:50;;;;;;;2.58;1.20;;;23.80;60.60;;;;;;4461769;32;20278;-72
2022/08/22 00:21:50;;;;;;;3.17;1.20;;;23.80;60.50;;;;;;4461949;32;20078;-71
2022/08/22 00:24:43;;;;;;;2.13;0.98;;;23.80;60.50;;;;;;4456091;32;20078;-72
2022/08/22 00:27:16;;;;;;;4.47;1.23;;;23.80;60.60;;;;;;4461773;32;20089;-71
2022/08/22 00:29:48;;;;;;;4.10;1.10;;;23.80;61.50;;;;;;4447425;32;20085;-72
2022/08/22 00:32:31;;;;;;;1.88;0.98;;;23.80;60.70;;;;;;4461378;32;20108;-71
2022/08/22 00:35:04;;;;;;;4.90;1.35;;;23.70;60.60;;;;;;4461732;32;20163;-72
2022/08/22 00:37:40;;;;;;;3.10;1.30;;;23.80;60.70;;;;;;4461001;32;20104;-72
2022/08/22 00:40:27;;;;;;;1.80;1.20;;;23.80;60.70;;;;;;4447295;32;20175;-71
2022/08/22 00:43:35;;;;;;;3.38;1.30;;;23.70;60.60;;;;;;4461514;32;20123;-72
2022/08/22 00:46:23;;;;;;;3.28;1.20;;;23.70;60.60;;;;;;4449922;32;20084;-72
2022/08/22 00:49:10;;;;;;;2.25;1.10;;;23.70;60.60;;;;;;4461357;32;20088;-72
2022/08/22 00:52:02;;;;;;;2.03;1.17;;;23.70;60.60;;;;;;4446944;32;20219;-72
2022/08/22 00:55:32;;;;;;;3.25;1.52;;;23.70;60.60;;;;;;4460761;32;20498;-72
2022/08/22 00:58:35;;;;;;;1.90;0.82;;;23.70;60.60;;;;;;4385644;32;20105;-72
2022/08/22 01:01:06;;;;;;;3.08;1.05;;;23.70;60.60;;;;;;4397583;32;20545;-72
2022/08/22 01:03:44;;;;;;;1.75;1.23;;;23.70;60.70;;;;;;4456337;32;20097;-71
2022/08/22 01:06:34;;;;;;;1.92;0.95;;;23.70;60.70;;;;;;4460752;32;20074;-72
2022/08/22 01:09:12;;;;;;;2.03;1.25;;;23.70;60.70;;;;;;4461342;32;20511;-71
2022/08/22 01:11:57;;;;;;;2.10;1.00;;;23.70;60.70;;;;;;4461062;32;20215;-71
2022/08/22 01:14:22;;;;;;;2.63;1.30;;;23.70;60.70;;;;;;4460711;32;20512;-72
2022/08/22 01:17:00;;;;;;;1.98;1.00;;;23.60;60.70;;;;;;4460433;32;20073;-71
2022/08/22 01:19:29;;;;;;;1.83;0.93;;;23.70;60.80;;;;;;4460406;32;20195;-71
2022/08/22 01:22:18;;;;;;;2.15;1.00;;;23.60;60.80;;;;;;4460411;32;20087;-71
2022/08/22 01:25:20;;;;;;;3.22;0.98;;;23.70;60.80;;;;;;4460740;32;20157;-71
2022/08/22 01:27:58;;;;;;;2.70;1.40;;;23.70;60.70;;;;;;4460660;32;20499;-71
2022/08/22 01:30:51;;;;;;;1.88;1.00;;;23.60;60.70;;;;;;4460574;32;20088;-71
2022/08/22 01:33:56;;;;;;;2.72;1.15;;;23.60;60.70;;;;;;4460941;32;20475;-71
2022/08/22 01:36:37;;;;;;;2.28;0.90;;;23.60;60.70;;;;;;4460732;32;20120;-72
2022/08/22 01:39:21;;;;;;;1.45;1.02;;;23.60;60.80;;;;;;4460893;32;20102;-71
2022/08/22 01:42:07;;;;;;;1.85;1.23;;;23.60;60.80;;;;;;4460626;32;20224;-71
2022/08/22 01:45:10;;;;;;;2.30;1.08;;;23.60;60.80;;;;;;4460602;32;20554;-71
2022/08/22 01:47:44;;;;;;;2.03;1.00;;;23.60;60.70;;;;;;4460862;32;20078;-71
2022/08/22 01:50:16;;;;;;;1.80;1.00;;;23.60;60.80;;;;;;4460777;32;20074;-71
2022/08/22 01:52:51;;;;;;;1.45;0.90;;;23.60;60.80;;;;;;4446769;32;20163;-71
2022/08/22 01:55:28;;;;;;;2.30;1.20;;;23.60;60.80;;;;;;4460704;32;20581;-71
2022/08/22 01:58:23;;;;;;;1.58;0.88;;;23.60;60.80;;;;;;4460204;32;20100;-72
2022/08/22 02:01:40;;;;;;;1.73;1.08;;;23.60;60.80;;;;;;4460425;32;20088;-72
2022/08/22 02:04:32;;;;;;;1.30;1.10;;;23.60;60.80;;;;;;4426425;32;20422;-72
2022/08/22 02:07:02;;;;;;;1.83;0.90;;;23.60;61.00;;;;;;4463645;32;20093;-72
2022/08/22 02:09:43;;;;;;;1.80;1.17;;;23.60;60.90;;;;;;4449434;32;20074;-72
2022/08/22 02:12:26;;;;;;;1.90;1.10;;;23.60;60.80;;;;;;4449187;32;20069;-71
2022/08/22 02:15:24;;;;;;;1.58;0.90;;;23.60;60.90;;;;;;4463646;32;20165;-72
2022/08/22 02:17:59;;;;;;;1.92;1.02;;;23.60;60.90;;;;;;4452295;32;20097;-71
2022/08/22 02:20:48;;;;;;;2.40;1.27;;;23.60;60.90;;;;;;4463432;32;20085;-71
2022/08/22 02:23:34;;;;;;;2.88;0.93;;;23.60;60.90;;;;;;4463542;32;20070;-72
2022/08/22 02:26:06;;;;;;;2.05;0.93;;;23.60;60.90;;;;;;4463272;32;20065;-71
2022/08/22 02:28:51;;;;;;;1.92;0.93;;;23.50;60.90;;;;;;4463119;32;20163;-72
2022/08/22 02:31:24;;;;;;;2.47;1.05;;;23.60;60.90;;;;;;4463428;32;20062;-72
2022/08/22 02:33:56;;;;;;;1.20;0.90;;;23.60;60.90;;;;;;4462745;32;20093;-71
2022/08/22 02:36:39;;;;;;;2.20;0.90;;;23.50;61.20;;;;;;4462787;32;20282;-71
2022/08/22 02:39:36;;;;;;;2.88;1.17;;;23.50;60.90;;;;;;4462711;32;20491;-71
2022/08/22 02:42:15;;;;;;;2.20;1.15;;;23.50;60.80;;;;;;4462776;32;20211;-71
2022/08/22 02:44:47;;;;;;;2.10;0.95;;;23.50;61.80;;;;;;4463259;32;20077;-72
2022/08/22 02:47:47;;;;;;;2.30;1.23;;;23.50;61.00;;;;;;4463129;32;20073;-71
2022/08/22 02:50:29;;;;;;;2.35;1.10;;;23.50;60.90;;;;;;4448792;32;20098;-71
2022/08/22 02:53:34;;;;;;;1.38;0.80;;;23.50;61.00;;;;;;4462797;32;20154;-72
2022/08/22 02:56:15;;;;;;;1.33;0.88;;;23.50;60.90;;;;;;4463092;32;20159;-72
2022/08/22 02:58:52;;;;;;;3.08;1.23;;;23.50;60.90;;;;;;4462875;32;20077;-72
2022/08/22 03:01:28;;;;;;;1.70;1.10;;;23.50;60.90;;;;;;4448506;32;20129;-72
2022/08/22 03:04:16;;;;;;;2.70;1.10;;;23.50;61.00;;;;;;4462297;32;20085;-71
2022/08/22 03:07:06;;;;;;;1.98;1.23;;;23.50;60.90;;;;;;4462562;32;20084;-72
2022/08/22 03:09:39;;;;;;;1.83;0.95;;;23.50;60.90;;;;;;4462829;32;20077;-72
2022/08/22 03:12:15;;;;;;;0.98;0.77;;;23.50;61.00;;;;;;4462604;32;20135;-72
2022/08/22 03:15:09;;;;;;;1.73;0.95;;;23.50;61.00;;;;;;4462770;32;20081;-72
2022/08/22 03:17:45;;;;;;;2.70;0.98;;;23.40;61.00;;;;;;4448502;32;20180;-71
2022/08/22 03:20:39;;;;;;;1.70;1.00;;;23.40;60.90;;;;;;4462212;32;20080;-71
2022/08/22 03:23:12;;;;;;;2.03;1.00;;;23.50;61.00;;;;;;4461771;32;20593;-71
2022/08/22 03:25:46;;;;;;;1.55;0.95;;;23.40;61.00;;;;;;4462584;32;20073;-71
2022/08/22 03:28:22;;;;;;;1.98;1.10;;;23.40;61.00;;;;;;4462420;32;20070;-71
2022/08/22 03:31:08;;;;;;;1.90;1.17;;;23.40;61.00;;;;;;4448011;32;20078;-72
2022/08/22 03:33:34;;;;;;;2.80;1.10;;;23.40;61.00;;;;;;4462709;32;20105;-71
2022/08/22 03:36:15;;;;;;;2.05;1.10;;;23.40;61.00;;;;;;4447785;32;20480;-71
2022/08/22 03:39:14;;;;;;;2.78;1.00;;;23.40;61.00;;;;;;4447700;32;20085;-71
2022/08/22 03:42:01;;;;;;;2.28;0.82;;;23.40;60.90;;;;;;4462192;32;20070;-71
2022/08/22 03:44:55;;;;;;;1.75;1.05;;;23.40;61.00;;;;;;4462126;32;20530;-71
2022/08/22 03:48:01;;;;;;;2.08;0.95;;;23.40;60.90;;;;;;4462104;32;20096;-71
2022/08/22 03:50:57;;;;;;;2.75;0.80;;;23.40;61.00;;;;;;4461716;32;20080;-72
2022/08/22 03:53:49;;;;;;;1.75;0.90;;;23.40;61.00;;;;;;4461913;32;20377;-71
2022/08/22 03:57:07;;;;;;;2.17;0.77;;;23.40;61.00;;;;;;4454959;32;20199;-71
2022/08/22 03:59:35;;;;;;;1.58;0.73;;;23.40;61.00;;;;;;4462229;32;20074;-71
2022/08/22 04:02:14;;;;;;;1.65;0.90;;;23.40;61.00;;;;;;4461788;32;20109;-71
2022/08/22 04:05:01;;;;;;;1.38;0.90;;;23.40;61.00;;;;;;4461761;32;20490;-71
2022/08/22 04:07:52;;;;;;;1.90;1.00;;;23.40;61.00;;;;;;4461799;32;20086;-71
2022/08/22 04:11:00;;;;;;;1.15;0.90;;;23.40;61.00;;;;;;4461611;32;20562;-72
2022/08/22 04:14:07;;;;;;;1.90;1.20;;;23.40;61.00;;;;;;4429014;32;20085;-71
2022/08/22 04:16:42;;;;;;;2.08;1.00;;;23.40;61.00;;;;;;4461678;32;20074;-71
2022/08/22 04:19:28;;;;;;;2.10;1.10;;;23.30;61.10;;;;;;4461592;32;20069;-71
2022/08/22 04:22:18;;;;;;;1.50;0.98;;;23.30;61.90;;;;;;4461782;32;20192;-71
2022/08/22 04:25:22;;;;;;;1.10;0.73;;;23.40;61.10;;;;;;4461465;32;20128;-72
2022/08/22 04:27:54;;;;;;;1.33;0.70;;;23.30;61.10;;;;;;4461363;32;20079;-71
2022/08/22 04:30:30;;;;;;;1.20;0.80;;;23.30;61.10;;;;;;4461279;32;20084;-71
2022/08/22 04:33:17;;;;;;;2.13;1.00;;;23.30;61.10;;;;;;4447312;32;20065;-71
2022/08/22 04:36:09;;;;;;;1.48;0.80;;;23.30;61.00;;;;;;4461190;32;20077;-71
2022/08/22 04:38:47;;;;;;;1.08;0.70;;;23.30;61.00;;;;;;4454050;32;20506;-73
2022/08/22 04:41:23;;;;;;;2.60;1.10;;;23.30;61.10;;;;;;4461134;32;20091;-71
2022/08/22 04:44:02;;;;;;;0.82;0.60;;;23.30;61.10;;;;;;4461391;32;20080;-71
2022/08/22 04:46:30;;;;;;;2.25;0.88;;;23.30;61.10;;;;;;4461337;32;20078;-71
2022/08/22 04:49:40;;;;;;;1.27;0.90;;;23.30;61.10;;;;;;4461160;32;20074;-71
2022/08/22 04:52:20;;;;;;;1.42;0.90;;;23.30;61.10;;;;;;4461421;32;20105;-71
2022/08/22 04:55:04;;;;;;;1.33;0.77;;;23.30;61.10;;;;;;4461110;32;20089;-72
2022/08/22 04:57:51;;;;;;;1.60;0.70;;;23.30;61.10;;;;;;4461040;32;20208;-72
2022/08/22 05:00:17;;;;;;;1.40;0.80;;;23.30;61.10;;;;;;4460756;32;20058;-71
2022/08/22 05:02:50;;;;;;;1.83;0.80;;;23.30;61.10;;;;;;4460908;32;20202;-71
2022/08/22 05:05:25;;;;;;;1.92;0.90;;;23.30;61.10;;;;;;4461109;32;20097;-72
2022/08/22 05:07:58;;;;;;;1.23;0.80;;;23.30;61.10;;;;;;4461196;32;20082;-71
2022/08/22 05:10:33;;;;;;;1.58;0.98;;;23.30;61.20;;;;;;4460921;32;20125;-71
2022/08/22 05:13:17;;;;;;;1.45;1.00;;;23.30;61.20;;;;;;4461099;32;20096;-71
2022/08/22 05:15:47;;;;;;;1.40;0.73;;;23.30;61.20;;;;;;4460901;32;20073;-71
2022/08/22 05:18:21;;;;;;;1.73;0.85;;;23.20;61.10;;;;;;4460856;32;20488;-71
2022/08/22 05:20:47;;;;;;;;;;;23.20;61.00;;;;;;4461485;32;20243;-72
2022/08/22 05:23:22;;;;;;;0.93;0.60;;;23.20;61.00;;;;;;4460427;32;19962;-71
2022/08/22 05:25:52;;;;;;;1.55;0.88;;;23.20;61.10;;;;;;4461030;32;20069;-71
2022/08/22 05:28:32;;;;;;;1.95;1.13;;;23.20;61.10;;;;;;4460667;32;20086;-71
2022/08/22 05:31:01;;;;;;;2.92;0.88;;;23.20;61.10;;;;;;4460655;32;20183;-71
2022/08/22 05:33:32;;;;;;;1.63;1.10;;;23.20;61.10;;;;;;4460336;32;20131;-72
2022/08/22 05:36:02;;;;;;;2.13;0.80;;;23.20;61.00;;;;;;4460599;32;20392;-71
2022/08/22 05:38:33;;;;;;;1.70;0.80;;;23.20;61.10;;;;;;4460728;32;20078;-71
2022/08/22 05:41:05;;;;;;;2.17;0.80;;;23.30;61.10;;;;;;4463906;32;20082;-72
2022/08/22 05:43:41;;;;;;;1.75;0.95;;;23.20;61.10;;;;;;4463951;32;20092;-71
2022/08/22 05:46:19;;;;;;;1.77;0.70;;;23.20;61.10;;;;;;4464122;32;20078;-71
2022/08/22 05:49:01;;;;;;;1.10;0.70;;;23.20;61.10;;;;;;4464003;32;20143;-71
2022/08/22 05:51:43;;;;;;;1.88;0.90;;;23.20;61.10;;;;;;4464042;32;20078;-71
2022/08/22 05:54:23;;;;;;;1.45;0.80;;;23.20;61.00;;;;;;4463721;32;20192;-71
2022/08/22 05:56:56;;;;;;;1.38;0.93;;;23.20;61.00;;;;;;4463981;32;20077;-71
2022/08/22 05:59:39;;;;;;;1.45;0.85;;;23.20;61.10;;;;;;4463782;32;20065;-71
2022/08/22 06:02:11;;;;;;;1.38;0.95;;;23.20;61.00;;;;;;4463461;32;20066;-71
2022/08/22 06:04:46;;;;;;;1.63;0.70;;;23.20;61.10;;;;;;4463756;32;20491;-71
2022/08/22 06:07:21;;;;;;;1.25;0.80;;;23.20;61.10;;;;;;4449478;32;20073;-71
2022/08/22 06:09:46;;;;;;;1.05;0.77;;;23.20;61.00;;;;;;4463424;32;20066;-72
2022/08/22 06:12:38;;;;;;;0.98;0.80;;;23.30;61.00;;;;;;4463598;32;20096;-72
2022/08/22 06:15:39;;;;;;;1.10;0.90;;;23.20;61.00;;;;;;4463421;32;20128;-71
2022/08/22 06:18:09;;;;;;;1.92;0.75;;;23.20;61.00;;;;;;4438956;32;20127;-72
2022/08/22 06:20:53;;;;;;;1.08;0.70;;;23.20;60.90;;;;;;4463387;32;20104;-71
2022/08/22 06:23:51;;;;;;;1.13;0.80;;;23.20;61.80;;;;;;4463564;32;20085;-71
2022/08/22 06:26:17;;;;;;;1.52;0.80;;;23.30;61.00;;;;;;4458587;32;20093;-72
2022/08/22 06:28:46;;;;;;;1.20;0.80;;;23.20;61.00;;;;;;4463099;32;20113;-72
2022/08/22 06:31:24;;;;;;;1.27;0.82;;;23.30;61.00;;;;;;4462827;32;20529;-71
2022/08/22 06:34:08;;;;;;;1.23;0.77;;;23.30;61.00;;;;;;4463156;32;20070;-72
2022/08/22 06:36:38;;;;;;;1.40;0.80;;;23.30;61.00;;;;;;4462911;32;20105;-72
2022/08/22 06:39:16;;;;;;;1.10;0.73;;;23.30;61.00;;;;;;4463013;32;20529;-73
2022/08/22 06:42:08;;;;;;;6.13;0.88;;;23.30;61.00;;;;;;4463037;32;20085;-74
2022/08/22 06:44:41;;;;;;;2.28;0.90;;;23.30;61.00;;;;;;4454640;32;20129;-74
2022/08/22 06:47:14;;;;;;;2.08;0.82;;;23.30;61.10;;;;;;4462855;32;20081;-75
2022/08/22 06:49:44;;;;;;;2.80;1.02;;;23.30;61.10;;;;;;4462556;32;20223;-73
2022/08/22 06:52:23;;;;;;;2.45;1.30;;;23.30;61.20;;;;;;4463012;32;20078;-73
2022/08/22 06:54:56;;;;;;;3.88;1.40;;;23.30;61.20;;;;;;4462577;32;20227;-74
2022/08/22 06:57:34;;;;;;;3.88;1.38;;;23.30;61.30;;;;;;4463083;32;20081;-74
2022/08/22 07:00:10;;;;;;;5.22;1.70;;;23.30;61.40;;;;;;4463002;32;20085;-74
2022/08/22 07:02:41;;;;;;;5.72;1.70;;;23.30;61.50;;;;;;4462560;32;20179;-74
2022/08/22 07:05:19;;;;;;;6.18;1.95;;;23.30;61.60;;;;;;4462816;32;20073;-74
2022/08/22 07:07:45;;;;;;;4.93;1.70;;;23.30;61.70;;;;;;4462662;32;20415;-74
2022/08/22 07:10:14;;;;;;;7.15;1.80;;;23.30;61.70;;;;;;4462160;32;20089;-74
2022/08/22 07:12:45;;;;;;;3.83;1.48;;;23.30;61.80;;;;;;4462292;32;20093;-74
2022/08/22 07:15:36;;;;;;;6.18;1.88;;;23.30;61.80;;;;;;4462495;32;20093;-74
2022/08/22 07:18:25;;;;;;;3.20;1.60;;;23.30;61.80;;;;;;4454589;32;20096;-74
2022/08/22 07:20:58;;;;;;;7.63;2.17;;;23.30;61.80;;;;;;4462417;32;20077;-74
2022/08/22 07:23:43;;;;;;;4.75;1.77;;;23.30;61.80;;;;;;4462441;32;20082;-74
2022/08/22 07:26:38;;;;;;;8.30;2.05;;;23.30;61.80;;;;;;4462272;32;20076;-74
2022/08/22 07:29:19;;;;;;;5.20;1.73;;;23.30;61.70;;;;;;4462383;32;20458;-74
2022/08/22 07:31:57;;;;;;;6.10;1.77;;;23.30;61.80;;;;;;4462325;32;20290;-74
2022/08/22 07:34:38;;;;;;;4.93;2.00;;;23.30;61.90;;;;;;4462173;32;20057;-74
2022/08/22 07:37:16;;;;;;;3.83;1.60;;;23.30;61.90;;;;;;4461932;32;20463;-74
2022/08/22 07:40:02;;;;;;;5.63;1.90;;;23.30;62.00;;;;;;4462205;32;20113;-73
2022/08/22 07:42:58;;;;;;;5.63;1.80;;;23.30;62.10;;;;;;4449358;32;20077;-73
2022/08/22 07:45:32;;;;;;;4.78;2.10;;;23.30;62.20;;;;;;4461968;32;20178;-73
2022/08/22 07:48:11;;;;;;;6.00;1.83;;;23.30;62.20;;;;;;4462027;32;20074;-73
2022/08/22 07:50:48;;;;;;;6.38;1.90;;;23.30;62.10;;;;;;4461908;32;20080;-74
2022/08/22 07:53:30;;;;;;;5.03;1.88;;;23.30;62.20;;;;;;4461966;32;20128;-74
2022/08/22 07:55:58;;;;;;;3.75;1.65;;;23.30;62.20;;;;;;4461936;32;20494;-73
2022/08/22 07:58:28;;;;;;;5.40;1.98;;;23.30;62.20;;;;;;4462024;32;20106;-74
2022/08/22 08:00:55;;;;;;;4.32;2.10;;;23.30;62.20;;;;;;4461936;32;20113;-75
2022/08/22 08:03:24;;;;;;;5.22;2.10;;;23.30;62.20;;;;;;4461387;32;20066;-74
2022/08/22 08:05:51;;;;;;;5.70;1.77;;;23.30;62.20;;;;;;4461861;32;20224;-74
2022/08/22 08:08:30;;;;;;;5.57;1.73;;;23.30;62.20;;;;;;4447914;32;20546;-74
2022/08/22 08:10:59;;;;;;;4.25;1.73;;;23.30;62.20;;;;;;4461664;32;20106;-75
2022/08/22 08:13:36;;;;;;;5.63;2.20;;;23.30;62.30;;;;;;4461510;32;20121;-74
2022/08/22 08:16:06;;;;;;;6.88;1.80;;;23.30;62.20;;;;;;4461394;32;20133;-75
2022/08/22 08:18:34;;;;;;;8.88;2.08;;;23.30;62.30;;;;;;4461700;32;20492;-74
2022/08/22 08:21:04;;;;;;;6.78;2.15;;;23.30;62.20;;;;;;4461688;32;20074;-74
2022/08/22 08:23:36;;;;;;;5.55;1.80;;;23.30;62.30;;;;;;4461469;32;20088;-74
2022/08/22 08:26:19;;;;;;;9.82;2.13;;;23.30;62.30;;;;;;4461489;32;20502;-74
2022/08/22 08:28:52;;;;;;;7.25;2.38;;;23.30;62.20;;;;;;4461752;32;20065;-74
2022/08/22 08:31:39;;;;;;;9.43;2.25;;;23.40;62.30;;;;;;4447496;32;20085;-74
2022/08/22 08:34:22;;;;;;;9.82;2.30;;;23.30;63.10;;;;;;4461326;32;20499;-73
2022/08/22 08:36:53;;;;;;;8.30;2.17;;;23.40;62.30;;;;;;4461058;32;20092;-74
2022/08/22 08:39:35;;;;;;;7.68;2.28;;;23.30;62.30;;;;;;4461067;32;20136;-74
2022/08/22 08:42:04;;;;;;;8.93;2.17;;;23.30;62.30;;;;;;4461005;32;20204;-74
2022/08/22 08:44:41;;;;;;;7.25;2.22;;;23.30;62.30;;;;;;4461209;32;20159;-74
2022/08/22 08:47:30;;;;;;;10.32;2.20;;;23.40;62.40;;;;;;4461419;32;20407;-74
2022/08/22 08:50:24;;;;;;;6.65;2.42;;;23.30;62.30;;;;;;4447021;32;20066;-74
2022/08/22 08:53:19;;;;;;;8.80;2.40;;;23.30;62.30;;;;;;4461278;32;20104;-73
2022/08/22 08:55:57;;;;;;;8.82;2.95;;;23.40;62.30;;;;;;4405188;32;20424;-73
2022/08/22 08:58:36;;;;;;;10.32;2.42;;;23.40;62.40;;;;;;4460833;32;20050;-73
2022/08/22 09:01:49;;;;;;;7.50;2.40;;;23.40;62.30;;;;;;4461212;32;20392;-71
2022/08/22 09:04:29;;;;;;;7.72;2.65;;;23.40;62.50;;;;;;4460671;32;20207;-72
2022/08/22 09:07:37;;;;;;;8.63;2.42;;;23.40;62.50;;;;;;4460869;32;20462;-71
2022/08/22 09:10:21;;;;;;;7.63;2.70;;;23.40;62.30;;;;;;4430062;32;20061;-72
2022/08/22 09:12:50;;;;;;;;;;;23.40;62.40;;;;;;4461477;32;20164;-72
2022/08/22 09:15:38;;;;;;;5.45;2.25;;;23.40;62.30;;;;;;4460705;32;20346;-73
2022/08/22 09:18:20;;;;;;;6.88;2.58;;;23.40;62.30;;;;;;4460845;32;20098;-73
2022/08/22 09:21:07;;;;;;;7.20;2.67;;;23.40;62.30;;;;;;4460700;32;20223;-73
2022/08/22 09:24:03;;;;;;;7.68;2.20;;;23.40;62.40;;;;;;4460503;32;20087;-73
2022/08/22 09:26:49;;;;;;;6.78;2.60;;;23.50;62.40;;;;;;4460663;32;20081;-73
2022/08/22 09:29:42;;;;;;;7.88;2.38;;;23.40;62.30;;;;;;4460550;32;20122;-73
2022/08/22 09:32:27;;;;;;;9.82;2.92;;;23.40;62.30;;;;;;4460950;32;20207;-73
2022/08/22 09:35:26;;;;;;;7.72;2.78;;;23.50;62.40;;;;;;4460302;32;20096;-73
2022/08/22 09:38:17;;;;;;;7.75;2.63;;;23.50;62.40;;;;;;4460385;32;20212;-75
2022/08/22 09:41:13;;;;;;;6.50;2.20;;;23.50;62.40;;;;;;4460651;32;20092;-74
2022/08/22 09:43:54;;;;;;;7.03;2.70;;;23.50;62.40;;;;;;4460605;32;20074;-72
2022/08/22 09:46:26;;;;;;;7.78;2.22;;;23.50;62.30;;;;;;4460594;32;20084;-73
2022/08/22 09:49:18;;;;;;;8.70;2.53;;;23.50;62.30;;;;;;4446193;32;20399;-74
2022/08/22 09:51:48;;;;;;;8.23;2.47;;;23.60;62.20;;;;;;4460444;32;20431;-73
2022/08/22 09:54:30;;;;;;;8.68;2.50;;;23.60;62.20;;;;;;4446160;32;20219;-73
2022/08/22 09:57:04;;;;;;;12.63;2.40;;;23.60;63.00;;;;;;4460658;32;20085;-73
2022/08/22 09:59:43;;;;;;;8.73;3.00;;;23.60;63.00;;;;;;4460611;32;20093;-73
2022/08/22 10:02:28;;;;;;;7.50;2.30;;;23.70;62.20;;;;;;4460709;32;20462;-73
2022/08/22 10:04:53;;;;;;;8.43;2.50;;;23.70;62.00;;;;;;4460399;32;20168;-73
2022/08/22 10:07:32;;;;;;;5.38;2.00;;;23.70;62.00;;;;;;4460657;32;20077;-73
2022/08/22 10:10:20;;;;;;;8.15;2.30;;;23.80;62.00;;;;;;4461178;32;20066;-73
2022/08/22 10:12:52;;;;;;;6.88;1.95;;;23.80;61.80;;;;;;4460703;32;20499;-73
2022/08/22 10:15:37;;;;;;;7.72;2.30;;;23.80;61.60;;;;;;4460457;32;20495;-72
2022/08/22 10:18:27;;;;;;;4.13;1.80;;;23.80;61.50;;;;;;4460039;32;20143;-73
2022/08/22 10:20:55;;;;;;;9.10;2.30;;;23.80;61.30;;;;;;4460584;32;20073;-73
2022/08/22 10:23:37;;;;;;;12.27;2.10;;;23.80;61.10;;;;;;4459940;32;20203;-73
2022/08/22 10:26:21;;;;;;;6.72;2.25;;;23.90;61.00;;;;;;4462370;32;20096;-73
2022/08/22 10:28:54;;;;;;;5.72;2.00;;;23.90;60.90;;;;;;4450356;32;20069;-74
2022/08/22 10:31:38;;;;;;;7.93;1.92;;;23.90;60.90;;;;;;4463317;32;20084;-73
2022/08/22 10:34:29;;;;;;;5.63;2.17;;;24.00;60.90;;;;;;4463494;32;20224;-73
2022/08/22 10:37:29;;;;;;;7.07;2.05;;;23.90;60.70;;;;;;4462859;32;20545;-73
2022/08/22 10:40:07;;;;;;;9.27;2.10;;;24.00;60.60;;;;;;4423807;32;20187;-73
2022/08/22 10:42:40;;;;;;;7.43;2.25;;;23.90;60.50;;;;;;4463177;32;20086;-73
2022/08/22 10:45:06;;;;;;;;;;;24.00;60.40;;;;;;4463948;32;20078;-73
2022/08/22 10:47:57;;;;;;;6.95;2.10;;;24.00;60.20;;;;;;4462832;32;19996;-72
2022/08/22 10:50:30;;;;;;;8.00;2.03;;;24.00;60.30;;;;;;4448326;32;20164;-73
2022/08/22 10:53:28;;;;;;;5.25;2.30;;;24.00;60.40;;;;;;4462687;32;20515;-73
2022/08/22 10:56:09;;;;;;;10.73;2.38;;;24.00;60.20;;;;;;4461535;32;20191;-74
2022/08/22 10:58:45;;;;;;;5.28;2.25;;;24.00;60.10;;;;;;4461795;32;20211;-74
2022/08/22 11:01:16;;;;;;;7.93;2.25;;;24.10;60.00;;;;;;4462345;32;20131;-74
2022/08/22 11:04:09;;;;;;;7.85;2.17;;;24.00;59.60;;;;;;4462582;32;20219;-73
2022/08/22 11:06:54;;;;;;;9.45;2.22;;;24.10;59.10;;;;;;4462714;32;20117;-74
2022/08/22 11:09:37;;;;;;;8.57;1.80;;;24.10;59.30;;;;;;4462678;32;20066;-74
2022/08/22 11:12:34;;;;;;;8.10;2.42;;;24.10;59.20;;;;;;4462573;32;20085;-74
2022/08/22 11:15:17;;;;;;;5.80;2.08;;;24.10;59.40;;;;;;4462938;32;20283;-75
2022/08/22 11:18:02;;;;;;;;;;;24.10;59.40;;;;;;4463649;32;20159;-75
2022/08/22 11:20:41;;;;;;;6.10;2.13;;;24.10;59.50;;;;;;4462359;32;19982;-75
2022/08/22 11:23:33;;;;;;;5.93;2.10;;;24.10;59.50;;;;;;4462493;32;20088;-74
2022/08/22 11:26:12;;;;;;;7.97;2.20;;;24.20;59.40;;;;;;4462017;32;20069;-74
2022/08/22 11:29:06;;;;;;;5.95;1.95;;;24.20;59.50;;;;;;4462474;32;20175;-74
2022/08/22 11:31:34;;;;;;;6.47;1.80;;;24.20;59.50;;;;;;4462556;32;20642;-75
2022/08/22 11:34:07;;;;;;;6.00;2.42;;;24.20;59.50;;;;;;4462229;32;20074;-75
2022/08/22 11:37:00;;;;;;;6.85;2.15;;;24.20;59.40;;;;;;4460839;32;20125;-75
2022/08/22 11:39:37;;;;;;;6.80;2.08;;;24.20;59.40;;;;;;4462150;32;20510;-75
2022/08/22 11:42:20;;;;;;;5.15;1.80;;;24.20;59.30;;;;;;4462158;32;20101;-74
2022/08/22 11:45:01;;;;;;;5.45;1.80;;;24.30;59.40;;;;;;4462117;32;20487;-74
2022/08/22 11:47:34;;;;;;;6.20;1.98;;;24.30;59.20;;;;;;4461774;32;20227;-75
2022/08/22 11:50:12;;;;;;;8.73;1.80;;;24.30;59.20;;;;;;4461751;32;20529;-75
2022/08/22 11:52:56;;;;;;;4.70;1.95;;;24.30;59.20;;;;;;4462045;32;20093;-71
2022/08/22 11:55:37;;;;;;;;;;;24.30;59.40;;;;;;4462983;32;20058;-74
2022/08/22 11:58:26;;;;;;;6.10;1.77;;;24.30;59.70;;;;;;4461793;32;19966;-75
2022/08/22 12:01:14;;;;;;;6.35;2.15;;;24.30;59.40;;;;;;4453416;32;20074;-74
2022/08/22 12:03:48;;;;;;;7.85;2.17;;;24.40;59.10;;;;;;4461907;32;20073;-72
2022/08/22 12:06:23;;;;;;;4.68;1.60;;;24.40;59.20;;;;;;4461805;32;20590;-74
2022/08/22 12:08:49;;;;;;;4.50;1.80;;;24.40;59.10;;;;;;4447519;32;20098;-77
2022/08/22 12:11:41;;;;;;;5.30;1.75;;;24.40;58.90;;;;;;4461384;32;20557;-75
2022/08/22 12:14:41;;;;;;;5.97;1.75;;;24.40;58.80;;;;;;4461705;32;20084;-76
2022/08/22 12:17:24;;;;;;;6.35;1.75;;;24.50;58.80;;;;;;4458653;32;20549;-75
2022/08/22 12:20:07;;;;;;;5.80;1.98;;;24.40;58.80;;;;;;4462077;32;20082;-74
2022/08/22 12:22:47;;;;;;;6.15;2.47;;;24.50;58.70;;;;;;4461424;32;20167;-75
2022/08/22 12:25:19;;;;;;;4.88;1.75;;;24.50;58.50;;;;;;4461388;32;20074;-75
2022/08/22 12:27:59;;;;;;;6.85;1.88;;;24.50;58.40;;;;;;4447521;32;20105;-76
2022/08/22 12:31:03;;;;;;;5.72;1.70;;;24.60;58.30;;;;;;4461406;32;20145;-74
2022/08/22 12:33:58;;;;;;;3.63;1.58;;;24.60;58.10;;;;;;4409551;32;20073;-75
2022/08/22 12:37:07;;;;;;;6.47;1.83;;;24.60;58.10;;;;;;4447447;32;20061;-74
2022/08/22 12:40:11;;;;;;;6.13;1.50;;;24.60;58.00;;;;;;4461493;32;20096;-75
2022/08/22 12:42:48;;;;;;;5.13;1.77;;;24.60;58.00;;;;;;4461538;32;20088;-76
2022/08/22 12:45:39;;;;;;;5.95;1.88;;;24.60;58.10;;;;;;4460471;32;20506;-75
2022/08/22 12:48:47;;;;;;;4.47;1.60;;;24.70;58.20;;;;;;4461102;32;20086;-75
2022/08/22 12:51:37;;;;;;;5.97;1.90;;;24.70;58.20;;;;;;4428681;32;20143;-75
2022/08/22 12:54:13;;;;;;;4.55;1.65;;;24.60;58.10;;;;;;4461715;32;20085;-76
2022/08/22 12:56:51;;;;;;;7.97;1.75;;;24.60;57.80;;;;;;4461245;32;20061;-75
2022/08/22 12:59:31;;;;;;;5.30;2.03;;;24.70;57.90;;;;;;4461016;32;20616;-75
2022/08/22 13:02:10;;;;;;;8.52;2.13;;;24.60;57.70;;;;;;4446733;32;20077;-75
2022/08/22 13:04:45;;;;;;;7.13;1.63;;;24.70;57.70;;;;;;4461135;32;20081;-76
2022/08/22 13:07:23;;;;;;;6.53;1.85;;;24.70;57.70;;;;;;4461190;32;20074;-75
2022/08/22 13:10:21;;;;;;;5.13;1.90;;;24.70;57.60;;;;;;4460785;32;20077;-74
2022/08/22 13:12:51;;;;;;;5.57;1.67;;;24.70;57.50;;;;;;4430936;32;20533;-75
2022/08/22 13:15:20;;;;;;;6.38;1.98;;;24.70;57.60;;;;;;4460773;32;20522;-75
2022/08/22 13:17:49;;;;;;;7.93;1.80;;;24.70;57.60;;;;;;4460764;32;20129;-75
2022/08/22 13:20:35;;;;;;;6.22;1.98;;;24.80;57.70;;;;;;4460605;32;20200;-75
2022/08/22 13:23:18;;;;;;;6.32;1.90;;;24.80;57.50;;;;;;4460757;32;20162;-75
2022/08/22 13:26:07;;;;;;;6.47;2.28;;;24.80;57.50;;;;;;4447358;32;20228;-75
2022/08/22 13:28:46;;;;;;;5.53;2.22;;;24.80;57.50;;;;;;4460717;32;20176;-75
2022/08/22 13:31:37;;;;;;;4.57;1.75;;;24.80;57.60;;;;;;4460666;32;20100;-76
2022/08/22 13:34:48;;;;;;;5.72;1.90;;;24.90;57.70;;;;;;4460694;32;20422;-75
2022/08/22 13:37:35;;;;;;;3.55;1.40;;;24.90;57.80;;;;;;4457414;32;20093;-75
2022/08/22 13:40:07;;;;;;;8.43;1.92;;;24.90;57.80;;;;;;4460679;32;20086;-75
2022/08/22 13:42:44;;;;;;;3.92;1.88;;;24.90;57.80;;;;;;4446381;32;20524;-75
2022/08/22 13:45:21;;;;;;;4.57;1.73;;;25.00;57.80;;;;;;4460876;32;20211;-75
2022/08/22 13:47:55;;;;;;;9.70;1.88;;;25.00;57.80;;;;;;4460610;32;20073;-77
2022/08/22 13:50:25;;;;;;;6.20;1.88;;;25.00;57.80;;;;;;4461055;32;20160;-76
2022/08/22 13:53:12;;;;;;;5.45;2.13;;;25.00;57.90;;;;;;4459027;32;20525;-77
2022/08/22 13:55:46;;;;;;;5.75;2.03;;;25.00;58.10;;;;;;4460432;32;20097;-76
2022/08/22 13:58:36;;;;;;;4.45;1.60;;;25.00;58.10;;;;;;4460786;32;20491;-76
2022/08/22 14:01:14;;;;;;;5.45;1.50;;;25.00;58.30;;;;;;4448876;32;20163;-76
2022/08/22 14:04:07;;;;;;;6.63;2.00;;;25.00;58.30;;;;;;4463586;32;20100;-71
2022/08/22 14:06:39;;;;;;;7.10;1.75;;;25.00;58.30;;;;;;4454975;32;20092;-75